Time;durP1;ratioP1;P1;durP2;ratioP2;P2;SDS_P1;SDS_P2;PMS_P1;PMS_P2;Temp;Humidity;BMP_temperature;BMP_pressure;BME280_temperature;BME280_humidity;BME280_pressure;Samples;Min_cycle;Max_cycle;Signal;HPM_P1;HPM_P2
2023/08/13 00:00:21;;;;;;;8.43;2.72;;;16.30;99.90;;;;;;5114899;27;20118;-63
2023/08/13 00:02:46;;;;;;;9.68;2.40;;;16.40;99.90;;;;;;5115743;27;20051;-62
2023/08/13 00:05:12;;;;;;;9.35;2.30;;;16.40;99.90;;;;;;5116748;27;20478;-62
2023/08/13 00:07:38;;;;;;;7.43;2.30;;;16.40;99.90;;;;;;5131028;27;20031;-62
2023/08/13 00:10:04;;;;;;;11.27;2.63;;;16.40;99.90;;;;;;5125737;27;20088;-67
2023/08/13 00:12:30;;;;;;;9.00;2.38;;;16.40;99.90;;;;;;5145325;27;20041;-62
2023/08/13 00:14:56;;;;;;;11.98;3.10;;;16.50;99.90;;;;;;5132780;27;20139;-63
2023/08/13 00:17:22;;;;;;;9.57;2.60;;;16.50;99.90;;;;;;5141665;27;20031;-63
2023/08/13 00:19:47;;;;;;;13.35;3.40;;;16.50;99.90;;;;;;5122431;27;20073;-64
2023/08/13 00:22:13;;;;;;;12.07;3.20;;;16.50;99.90;;;;;;5131793;27;20071;-62
2023/08/13 00:24:39;;;;;;;11.90;2.95;;;16.50;99.90;;;;;;5140897;27;20028;-63
2023/08/13 00:27:04;;;;;;;11.65;2.92;;;16.50;99.90;;;;;;5125142;27;20048;-64
2023/08/13 00:29:31;;;;;;;8.43;2.78;;;16.50;99.90;;;;;;5114664;27;20039;-63
2023/08/13 00:31:57;;;;;;;11.75;3.22;;;16.50;99.90;;;;;;5130605;27;20050;-63
2023/08/13 00:34:22;;;;;;;13.13;3.58;;;16.50;99.90;;;;;;5109038;28;20050;-62
2023/08/13 00:36:48;;;;;;;14.55;2.90;;;16.50;99.90;;;;;;5126184;27;20051;-63
2023/08/13 00:39:14;;;;;;;11.52;2.83;;;16.40;99.90;;;;;;5130535;27;20122;-62
2023/08/13 00:41:40;;;;;;;12.02;2.60;;;16.40;99.90;;;;;;5123546;27;20080;-62
2023/08/13 00:44:06;;;;;;;10.77;2.72;;;16.40;99.90;;;;;;5090842;28;20059;-62
2023/08/13 00:46:32;;;;;;;12.93;2.40;;;16.40;99.90;;;;;;5117361;27;20063;-62
2023/08/13 00:48:59;;;;;;;12.32;3.03;;;16.30;99.90;;;;;;5114138;27;20039;-64
2023/08/13 00:51:26;;;;;;;11.77;2.92;;;16.30;99.90;;;;;;5130115;27;20423;-64
2023/08/13 00:53:53;;;;;;;8.93;2.28;;;16.30;99.90;;;;;;5121190;27;20048;-63
2023/08/13 00:56:19;;;;;;;10.18;2.60;;;16.30;99.90;;;;;;5122448;27;20059;-64
2023/08/13 00:58:45;;;;;;;11.50;2.95;;;16.20;99.90;;;;;;5126281;27;20044;-63
2023/08/13 01:01:12;;;;;;;9.63;2.28;;;16.20;99.90;;;;;;5110312;28;20045;-62
2023/08/13 01:03:38;;;;;;;10.45;2.70;;;16.20;99.90;;;;;;5125700;27;20034;-62
2023/08/13 01:06:30;;;;;;;11.82;2.63;;;16.20;99.90;;;;;;5113594;27;20103;-61
2023/08/13 01:09:19;;;;;;;13.88;2.70;;;16.20;99.90;;;;;;5122984;27;20058;-63
2023/08/13 01:12:22;;;;;;;13.60;3.85;;;16.20;99.90;;;;;;5125668;27;20050;-63
2023/08/13 01:15:00;;;;;;;;;;;16.10;99.90;;;;;;5054046;28;20062;-63
2023/08/13 01:17:27;;;;;;;8.05;2.20;;;16.10;99.90;;;;;;5081247;28;19925;-63
2023/08/13 01:19:52;;;;;;;11.82;2.67;;;16.10;99.90;;;;;;5055069;28;20139;-62
2023/08/13 01:22:24;;;;;;;11.88;2.80;;;16.20;99.90;;;;;;5041690;28;20131;-64
2023/08/13 01:24:50;;;;;;;14.73;2.78;;;16.10;99.90;;;;;;5071451;28;20087;-64
2023/08/13 01:27:28;;;;;;;10.70;2.72;;;16.20;99.90;;;;;;5067264;28;20463;-63
2023/08/13 01:30:08;;;;;;;11.27;2.70;;;16.20;99.90;;;;;;5068482;28;20062;-63
2023/08/13 01:32:41;;;;;;;11.27;2.85;;;16.20;99.90;;;;;;5064638;28;20043;-62
2023/08/13 01:35:09;;;;;;;9.85;2.40;;;16.20;99.90;;;;;;5066752;28;20071;-62
2023/08/13 01:37:35;;;;;;;9.60;2.80;;;16.20;99.90;;;;;;5062180;28;20044;-64
2023/08/13 01:40:03;;;;;;;10.18;2.88;;;16.20;99.90;;;;;;5052248;28;20396;-63
2023/08/13 01:42:33;;;;;;;11.05;3.22;;;16.20;99.90;;;;;;5060908;28;20040;-62
2023/08/13 01:44:58;;;;;;;13.95;3.13;;;16.10;99.90;;;;;;5059401;28;20469;-63
2023/08/13 01:47:24;;;;;;;10.45;2.85;;;16.10;99.90;;;;;;5070931;28;20134;-62
2023/08/13 01:49:50;;;;;;;13.50;2.92;;;16.10;99.90;;;;;;5086933;28;20062;-62
2023/08/13 01:52:15;;;;;;;9.55;2.63;;;16.10;99.90;;;;;;5108698;28;20473;-64
2023/08/13 01:54:41;;;;;;;13.85;2.85;;;16.10;99.90;;;;;;5109366;28;20082;-63
2023/08/13 01:57:06;;;;;;;9.15;2.53;;;16.10;99.90;;;;;;5124800;28;20114;-63
2023/08/13 01:59:32;;;;;;;10.95;3.10;;;16.00;99.90;;;;;;5112166;28;20385;-62
2023/08/13 02:01:57;;;;;;;14.00;3.10;;;16.00;99.90;;;;;;5125752;28;20040;-63
2023/08/13 02:04:23;;;;;;;11.80;2.85;;;16.00;99.90;;;;;;5110494;28;20036;-63
2023/08/13 02:06:49;;;;;;;13.65;4.20;;;16.00;99.90;;;;;;5113695;28;20071;-63
2023/08/13 02:09:14;;;;;;;13.77;3.08;;;16.00;99.90;;;;;;5115144;28;20042;-62
2023/08/13 02:11:40;;;;;;;8.00;2.60;;;16.00;99.90;;;;;;5121763;28;20397;-62
2023/08/13 02:14:05;;;;;;;11.30;2.95;;;16.00;99.90;;;;;;5128077;28;20121;-63
2023/08/13 02:16:31;;;;;;;10.00;2.83;;;16.00;99.90;;;;;;5128405;28;20028;-62
2023/08/13 02:18:57;;;;;;;11.55;2.72;;;15.90;99.90;;;;;;5118804;28;20030;-63
2023/08/13 02:21:22;;;;;;;13.65;3.20;;;15.90;99.90;;;;;;5121529;28;20047;-63
2023/08/13 02:23:48;;;;;;;11.95;3.22;;;15.90;99.90;;;;;;5122190;28;20035;-64
2023/08/13 02:26:14;;;;;;;13.02;3.03;;;15.90;99.90;;;;;;5113282;28;20073;-62
2023/08/13 02:28:42;;;;;;;9.55;2.40;;;15.80;99.90;;;;;;5109205;28;20039;-63
2023/08/13 02:31:08;;;;;;;8.95;2.60;;;15.80;99.90;;;;;;5111178;28;20417;-63
2023/08/13 02:33:34;;;;;;;10.77;2.75;;;15.80;99.90;;;;;;5110323;28;20046;-63
2023/08/13 02:35:59;;;;;;;8.75;2.85;;;15.80;99.90;;;;;;5112119;28;20133;-63
2023/08/13 02:38:25;;;;;;;13.18;3.10;;;15.70;99.90;;;;;;5111148;28;20057;-63
2023/08/13 02:40:51;;;;;;;13.05;3.40;;;15.70;99.90;;;;;;5114478;28;20039;-64
2023/08/13 02:43:16;;;;;;;10.45;2.95;;;15.70;99.90;;;;;;5112833;28;20042;-62
2023/08/13 02:45:42;;;;;;;11.55;3.08;;;15.60;99.90;;;;;;5109021;28;20043;-63
2023/08/13 02:48:07;;;;;;;11.00;2.60;;;15.60;99.90;;;;;;5110743;28;20043;-63
2023/08/13 02:50:33;;;;;;;12.65;3.25;;;15.60;99.90;;;;;;5103985;28;20054;-64
2023/08/13 02:53:00;;;;;;;18.95;3.20;;;15.60;99.90;;;;;;5113564;28;20127;-63
2023/08/13 02:55:26;;;;;;;11.23;3.10;;;15.50;99.90;;;;;;5114109;28;20417;-63
2023/08/13 02:57:51;;;;;;;6.70;2.88;;;15.50;99.90;;;;;;5112940;28;20043;-63
2023/08/13 03:00:17;;;;;;;15.25;3.42;;;15.40;99.90;;;;;;5131056;27;20050;-63
2023/08/13 03:02:43;;;;;;;8.38;2.78;;;15.50;99.90;;;;;;5132888;27;20053;-63
2023/08/13 03:05:09;;;;;;;8.95;3.45;;;15.40;99.90;;;;;;5133753;27;20063;-64
2023/08/13 03:07:35;;;;;;;11.02;3.05;;;15.40;99.90;;;;;;5116092;27;20078;-62
2023/08/13 03:10:01;;;;;;;11.60;2.92;;;15.40;99.90;;;;;;5095021;28;20052;-63
2023/08/13 03:12:27;;;;;;;9.55;3.00;;;15.30;99.90;;;;;;5125674;27;20039;-62
2023/08/13 03:14:52;;;;;;;9.45;3.00;;;15.30;99.90;;;;;;5126462;27;20047;-63
2023/08/13 03:17:18;;;;;;;6.53;2.55;;;15.30;99.90;;;;;;5124477;27;20397;-63
2023/08/13 03:19:44;;;;;;;12.32;2.85;;;15.30;99.90;;;;;;5121623;27;20366;-64
2023/08/13 03:22:09;;;;;;;11.98;3.22;;;15.20;99.90;;;;;;5133540;27;20043;-63
2023/08/13 03:24:35;;;;;;;13.25;2.83;;;15.20;99.90;;;;;;5116515;27;20028;-62
2023/08/13 03:27:00;;;;;;;9.00;2.97;;;15.20;99.90;;;;;;5112839;27;20050;-63
2023/08/13 03:29:26;;;;;;;13.63;3.58;;;15.20;99.90;;;;;;5112334;28;20136;-62
2023/08/13 03:31:52;;;;;;;8.43;3.08;;;15.20;99.90;;;;;;5111920;27;20039;-63
2023/08/13 03:34:17;;;;;;;9.35;2.75;;;15.20;99.90;;;;;;5126559;27;20043;-63
2023/08/13 03:36:43;;;;;;;10.65;2.97;;;15.20;99.90;;;;;;5124440;27;20067;-62
2023/08/13 03:39:09;;;;;;;8.48;2.95;;;15.20;99.90;;;;;;5123296;27;20371;-63
2023/08/13 03:41:34;;;;;;;10.55;3.10;;;15.10;99.90;;;;;;5121679;27;20042;-64
2023/08/13 03:44:00;;;;;;;11.82;2.92;;;15.10;99.90;;;;;;5132232;27;20039;-62
2023/08/13 03:46:26;;;;;;;8.93;3.22;;;15.10;99.90;;;;;;5131158;27;20043;-62
2023/08/13 03:48:51;;;;;;;14.80;3.20;;;15.10;99.90;;;;;;5096000;28;20067;-63
2023/08/13 03:51:17;;;;;;;11.43;3.58;;;15.00;99.90;;;;;;5124404;27;20088;-64
2023/08/13 03:53:42;;;;;;;7.07;2.85;;;15.00;99.90;;;;;;5123996;27;20083;-63
2023/08/13 03:56:08;;;;;;;11.38;2.90;;;15.00;99.90;;;;;;5130631;27;20059;-63
2023/08/13 03:58:34;;;;;;;12.07;3.60;;;15.00;99.90;;;;;;5119411;27;20533;-63
2023/08/13 04:01:08;;;;;;;11.50;3.10;;;15.10;99.90;;;;;;5097079;27;20047;-63
2023/08/13 04:03:33;;;;;;;13.30;4.30;;;15.10;99.90;;;;;;5122740;27;20045;-63
2023/08/13 04:05:59;;;;;;;14.60;3.38;;;15.10;99.90;;;;;;5113209;27;20457;-62
2023/08/13 04:08:25;;;;;;;8.10;3.00;;;15.10;99.90;;;;;;5127060;27;20043;-63
2023/08/13 04:10:52;;;;;;;12.65;3.60;;;15.10;99.90;;;;;;5095499;28;20554;-63
2023/08/13 04:13:19;;;;;;;9.60;3.30;;;15.10;99.90;;;;;;5113890;27;20062;-63
2023/08/13 04:15:45;;;;;;;8.55;3.00;;;15.20;99.90;;;;;;5111018;28;20055;-62
2023/08/13 04:18:10;;;;;;;8.77;3.35;;;15.20;99.90;;;;;;5112567;27;20508;-64
2023/08/13 04:20:39;;;;;;;11.98;3.67;;;15.20;99.90;;;;;;5111601;27;20386;-62
2023/08/13 04:23:05;;;;;;;12.98;3.60;;;15.20;99.90;;;;;;5110940;28;20040;-62
2023/08/13 04:25:31;;;;;;;12.40;3.83;;;15.30;99.90;;;;;;5124856;27;20119;-63
2023/08/13 04:27:57;;;;;;;12.15;3.28;;;15.30;99.90;;;;;;5134916;27;20426;-62
2023/08/13 04:30:23;;;;;;;13.20;3.80;;;15.30;99.90;;;;;;5129126;27;20039;-63
2023/08/13 04:32:55;;;;;;;11.75;3.30;;;15.30;99.90;;;;;;5134985;27;20043;-62
2023/08/13 04:35:21;;;;;;;13.23;3.80;;;15.30;99.90;;;;;;5134930;27;20118;-63
2023/08/13 04:37:47;;;;;;;12.10;3.45;;;15.30;99.90;;;;;;5134194;27;20055;-63
2023/08/13 04:40:13;;;;;;;12.13;3.22;;;15.40;99.90;;;;;;5103849;27;20076;-63
2023/08/13 04:42:41;;;;;;;13.98;3.40;;;15.40;99.90;;;;;;5134731;27;20493;-62
2023/08/13 04:45:07;;;;;;;12.63;3.30;;;15.50;99.90;;;;;;5118667;27;20473;-62
2023/08/13 04:47:32;;;;;;;13.13;3.40;;;15.50;99.90;;;;;;5132302;27;20043;-64
2023/08/13 04:49:58;;;;;;;11.63;3.33;;;15.50;99.90;;;;;;5113712;27;20397;-63
2023/08/13 04:52:23;;;;;;;9.90;2.95;;;15.50;99.90;;;;;;5128122;27;20469;-62
2023/08/13 04:54:49;;;;;;;11.18;3.28;;;15.50;99.90;;;;;;5124087;27;20034;-63
2023/08/13 04:57:15;;;;;;;12.38;3.08;;;15.50;99.90;;;;;;5114996;27;20408;-63
2023/08/13 04:59:41;;;;;;;12.77;3.40;;;15.60;99.90;;;;;;5134264;27;20035;-63
2023/08/13 05:02:06;;;;;;;10.35;3.70;;;15.60;99.90;;;;;;5116013;27;20047;-63
2023/08/13 05:04:32;;;;;;;8.95;3.10;;;15.60;99.90;;;;;;5144904;27;20506;-64
2023/08/13 05:06:58;;;;;;;7.93;2.83;;;15.60;99.90;;;;;;5116978;27;20070;-62
2023/08/13 05:09:23;;;;;;;8.50;2.80;;;15.60;99.90;;;;;;5112806;27;20051;-62
2023/08/13 05:11:49;;;;;;;10.70;3.97;;;15.60;99.90;;;;;;5123598;27;20100;-63
2023/08/13 05:14:15;;;;;;;10.00;3.03;;;15.60;99.90;;;;;;5123582;27;20049;-63
2023/08/13 05:16:40;;;;;;;6.65;2.85;;;15.60;99.90;;;;;;5118621;27;20035;-63
2023/08/13 05:19:06;;;;;;;9.55;3.10;;;15.60;99.90;;;;;;5145153;27;20035;-62
2023/08/13 05:21:31;;;;;;;8.77;2.90;;;15.70;99.90;;;;;;5129066;27;20047;-63
2023/08/13 05:23:57;;;;;;;11.32;3.10;;;15.70;99.90;;;;;;5101958;27;20078;-63
2023/08/13 05:26:23;;;;;;;8.30;3.17;;;15.80;99.90;;;;;;5117941;27;20657;-64
2023/08/13 05:28:48;;;;;;;13.10;3.15;;;15.80;99.90;;;;;;5128495;27;20042;-63
2023/08/13 05:31:14;;;;;;;10.40;3.42;;;15.80;99.90;;;;;;5121218;27;20043;-62
2023/08/13 05:33:40;;;;;;;11.90;4.03;;;15.80;99.90;;;;;;5123492;27;20034;-62
2023/08/13 05:36:05;;;;;;;9.73;3.03;;;15.90;99.90;;;;;;5144070;27;20039;-62
2023/08/13 05:38:32;;;;;;;10.52;3.05;;;15.90;99.90;;;;;;5120199;27;20047;-62
2023/08/13 05:40:58;;;;;;;10.27;3.50;;;16.00;99.90;;;;;;5112536;27;20050;-61
2023/08/13 05:43:23;;;;;;;10.07;3.22;;;16.10;99.90;;;;;;5138651;27;20402;-64
2023/08/13 05:45:49;;;;;;;12.63;3.40;;;16.20;99.90;;;;;;5115568;27;20043;-63
2023/08/13 05:48:15;;;;;;;8.30;3.08;;;16.20;99.90;;;;;;5133403;27;20035;-62
2023/08/13 05:50:41;;;;;;;11.10;2.60;;;16.30;99.90;;;;;;5139134;27;20031;-64
2023/08/13 05:53:06;;;;;;;12.88;3.47;;;16.40;99.90;;;;;;5136617;27;20046;-63
2023/08/13 05:55:32;;;;;;;12.30;4.13;;;16.40;99.90;;;;;;5139108;27;20386;-63
2023/08/13 05:57:57;;;;;;;11.90;3.25;;;16.50;99.90;;;;;;5116234;27;20035;-63
2023/08/13 06:00:24;;;;;;;10.18;3.20;;;16.50;99.90;;;;;;5126905;27;20495;-63
2023/08/13 06:02:49;;;;;;;10.23;2.72;;;16.60;99.90;;;;;;5138726;27;20045;-62
2023/08/13 06:05:15;;;;;;;8.15;3.17;;;16.80;99.90;;;;;;5117149;27;20397;-62
2023/08/13 06:07:41;;;;;;;9.73;3.25;;;16.80;99.90;;;;;;5124441;27;20039;-63
2023/08/13 06:10:07;;;;;;;12.50;3.25;;;16.90;99.90;;;;;;5134234;27;20031;-63
2023/08/13 06:12:33;;;;;;;9.80;2.80;;;17.00;99.90;;;;;;5122773;28;20405;-63
2023/08/13 06:14:59;;;;;;;7.93;2.70;;;17.10;99.90;;;;;;5117704;27;20088;-63
2023/08/13 06:17:25;;;;;;;13.50;3.30;;;17.20;99.90;;;;;;5129496;27;20435;-64
2023/08/13 06:19:51;;;;;;;10.73;3.10;;;17.20;99.90;;;;;;5118768;27;20400;-63
2023/08/13 06:22:17;;;;;;;10.80;3.17;;;17.10;99.90;;;;;;5147108;27;20042;-62
2023/08/13 06:24:42;;;;;;;9.95;3.97;;;17.10;99.90;;;;;;5140204;27;20548;-62
2023/08/13 06:27:08;;;;;;;13.85;4.30;;;17.00;99.90;;;;;;5138508;27;20050;-62
2023/08/13 06:29:34;;;;;;;10.70;2.75;;;17.20;99.90;;;;;;5121248;27;20584;-62
2023/08/13 06:31:59;;;;;;;12.77;3.13;;;17.40;99.90;;;;;;5136892;27;20532;-63
2023/08/13 06:34:25;;;;;;;11.18;3.10;;;17.60;99.90;;;;;;5130781;27;20042;-62
2023/08/13 06:36:51;;;;;;;14.95;3.60;;;17.60;99.90;;;;;;5135553;27;20042;-62
2023/08/13 06:39:18;;;;;;;11.35;3.28;;;17.70;99.90;;;;;;5139102;27;20028;-63
2023/08/13 06:41:43;;;;;;;12.90;3.30;;;17.70;99.90;;;;;;5119800;27;20078;-63
2023/08/13 06:44:18;;;;;;;9.07;3.58;;;17.70;99.90;;;;;;5120501;27;20081;-63
2023/08/13 06:46:43;;;;;;;11.10;3.58;;;17.70;99.90;;;;;;5130171;27;20074;-63
2023/08/13 06:49:09;;;;;;;10.75;3.33;;;17.70;99.90;;;;;;5105290;27;20457;-63
2023/08/13 06:51:34;;;;;;;8.88;3.00;;;17.80;99.90;;;;;;5144273;27;20106;-63
2023/08/13 06:54:00;;;;;;;9.48;2.80;;;18.00;99.90;;;;;;5118696;27;20397;-61
2023/08/13 06:56:26;;;;;;;10.43;2.88;;;18.10;99.90;;;;;;5125969;27;20038;-63
2023/08/13 06:58:51;;;;;;;10.80;2.85;;;18.20;99.90;;;;;;5121583;27;20038;-62
2023/08/13 07:01:17;;;;;;;8.77;2.97;;;18.30;99.90;;;;;;5118266;27;20086;-63
2023/08/13 07:03:44;;;;;;;9.10;2.78;;;18.40;99.90;;;;;;5143352;27;20035;-63
2023/08/13 07:06:11;;;;;;;9.07;2.80;;;18.50;99.90;;;;;;5119075;27;20497;-63
2023/08/13 07:08:36;;;;;;;11.52;2.95;;;18.50;99.90;;;;;;5117650;27;20389;-63
2023/08/13 07:11:02;;;;;;;12.68;3.65;;;18.60;99.90;;;;;;5100670;27;20066;-63
2023/08/13 07:13:28;;;;;;;8.82;2.63;;;18.70;99.90;;;;;;5139191;27;20034;-63
2023/08/13 07:15:53;;;;;;;11.20;2.72;;;18.70;99.90;;;;;;5129569;27;20137;-62
2023/08/13 07:18:19;;;;;;;9.00;2.40;;;18.80;99.90;;;;;;5138511;27;20027;-62
2023/08/13 07:20:45;;;;;;;8.95;2.45;;;19.00;99.90;;;;;;5118330;27;20087;-63
2023/08/13 07:23:10;;;;;;;8.07;2.60;;;19.20;99.90;;;;;;5137477;27;20095;-63
2023/08/13 07:25:36;;;;;;;9.82;2.47;;;19.40;99.90;;;;;;5136398;27;20255;-63
2023/08/13 07:28:02;;;;;;;9.88;2.45;;;19.30;99.90;;;;;;5138829;27;20034;-63
2023/08/13 07:30:28;;;;;;;8.13;2.13;;;19.40;99.90;;;;;;5120839;27;20038;-62
2023/08/13 07:32:54;;;;;;;9.75;2.78;;;19.40;99.90;;;;;;5135456;27;20481;-63
2023/08/13 07:35:20;;;;;;;8.77;2.53;;;19.40;99.90;;;;;;5126807;27;20070;-63
2023/08/13 07:37:46;;;;;;;10.50;2.50;;;19.50;99.90;;;;;;5115851;27;20110;-63
2023/08/13 07:40:12;;;;;;;8.18;2.45;;;19.50;99.90;;;;;;5119572;27;20444;-64
2023/08/13 07:42:39;;;;;;;8.30;2.15;;;19.60;99.90;;;;;;5122339;27;20046;-63
2023/08/13 07:45:05;;;;;;;10.35;2.53;;;19.70;99.90;;;;;;5118206;27;20035;-63
2023/08/13 07:47:32;;;;;;;9.27;2.67;;;19.90;99.90;;;;;;5149691;27;20494;-63
2023/08/13 07:49:57;;;;;;;11.38;2.95;;;19.90;99.90;;;;;;5114643;27;20130;-63
2023/08/13 07:52:23;;;;;;;6.22;2.20;;;19.90;99.90;;;;;;5127062;27;20446;-62
2023/08/13 07:54:49;;;;;;;8.60;2.33;;;20.00;99.90;;;;;;5120562;27;20130;-63
2023/08/13 07:57:15;;;;;;;9.93;2.60;;;20.00;99.90;;;;;;5135493;27;20439;-63
2023/08/13 07:59:40;;;;;;;9.98;2.67;;;20.00;99.90;;;;;;5120728;27;20038;-62
2023/08/13 08:02:07;;;;;;;8.45;2.20;;;20.00;99.90;;;;;;5119340;27;20047;-62
2023/08/13 08:04:32;;;;;;;9.80;2.80;;;20.00;99.90;;;;;;5125782;27;20054;-63
2023/08/13 08:06:58;;;;;;;11.02;2.97;;;19.90;99.90;;;;;;5126949;27;20045;-63
2023/08/13 08:09:24;;;;;;;9.50;2.55;;;19.90;99.90;;;;;;5142051;27;20027;-63
2023/08/13 08:11:49;;;;;;;8.43;2.40;;;19.90;99.90;;;;;;5116734;27;20051;-64
2023/08/13 08:14:15;;;;;;;9.32;2.20;;;20.00;99.90;;;;;;5119520;27;20450;-63
2023/08/13 08:16:41;;;;;;;8.07;2.10;;;20.10;99.90;;;;;;5132786;27;20041;-63
2023/08/13 08:19:06;;;;;;;11.02;2.42;;;20.30;99.90;;;;;;5122405;27;20031;-63
2023/08/13 08:21:32;;;;;;;7.43;2.30;;;20.50;99.90;;;;;;5120546;27;20051;-64
2023/08/13 08:24:00;;;;;;;9.07;2.30;;;20.60;99.90;;;;;;5123105;27;20042;-64
2023/08/13 08:26:28;;;;;;;6.50;1.63;;;20.80;99.90;;;;;;5145165;27;20127;-63
2023/08/13 08:28:53;;;;;;;8.90;2.15;;;21.00;99.90;;;;;;5122007;27;20042;-64
2023/08/13 08:31:19;;;;;;;5.38;1.80;;;20.90;99.90;;;;;;5125954;27;20035;-63
2023/08/13 08:33:45;;;;;;;6.95;1.77;;;21.10;99.90;;;;;;5143353;27;20408;-63
2023/08/13 08:36:10;;;;;;;8.60;1.77;;;21.20;99.90;;;;;;5122735;27;20050;-62
2023/08/13 08:38:37;;;;;;;8.43;2.00;;;21.40;99.90;;;;;;5141178;27;20042;-63
2023/08/13 08:41:03;;;;;;;10.43;2.42;;;21.40;99.90;;;;;;5123593;27;20047;-63
2023/08/13 08:43:31;;;;;;;7.68;1.98;;;21.30;99.90;;;;;;5126225;27;20046;-63
2023/08/13 08:45:58;;;;;;;8.82;2.47;;;21.20;99.90;;;;;;5103470;27;20393;-63
2023/08/13 08:48:28;;;;;;;8.43;1.83;;;21.20;99.90;;;;;;5146869;27;20042;-63
2023/08/13 08:50:54;;;;;;;7.10;2.17;;;21.40;99.90;;;;;;5131648;27;20051;-63
2023/08/13 08:53:21;;;;;;;7.35;2.38;;;21.60;99.90;;;;;;5126182;27;20092;-63
2023/08/13 08:55:48;;;;;;;5.53;1.50;;;21.70;99.90;;;;;;5128301;27;20125;-64
2023/08/13 08:58:14;;;;;;;8.35;2.10;;;21.70;99.90;;;;;;5133578;27;20031;-63
2023/08/13 09:00:40;;;;;;;7.93;1.77;;;21.70;99.90;;;;;;5117714;27;20554;-63
2023/08/13 09:03:06;;;;;;;7.20;2.10;;;21.90;99.90;;;;;;5120659;27;20047;-64
2023/08/13 09:05:36;;;;;;;7.18;1.88;;;22.00;99.90;;;;;;5105844;27;20054;-63
2023/08/13 09:08:20;;;;;;;8.27;2.03;;;21.80;99.90;;;;;;5125051;27;20536;-64
2023/08/13 09:10:49;;;;;;;5.72;1.85;;;21.70;99.90;;;;;;5120572;27;20043;-63
2023/08/13 09:13:14;;;;;;;6.82;2.22;;;21.80;99.90;;;;;;5124689;27;20042;-63
2023/08/13 09:15:58;;;;;;;7.15;1.50;;;21.80;99.90;;;;;;5141263;27;20030;-64
2023/08/13 09:18:24;;;;;;;5.13;1.85;;;21.90;99.90;;;;;;5134889;27;20497;-63
2023/08/13 09:20:49;;;;;;;4.85;1.52;;;21.80;99.90;;;;;;5123634;27;20043;-63
2023/08/13 09:23:25;;;;;;;6.90;1.70;;;21.80;99.90;;;;;;5146763;27;20084;-63
2023/08/13 09:25:57;;;;;;;5.57;1.42;;;22.00;99.90;;;;;;5122513;27;20074;-63
2023/08/13 09:28:24;;;;;;;5.73;1.47;;;22.10;99.90;;;;;;5116313;27;20134;-63
2023/08/13 09:30:50;;;;;;;5.45;1.65;;;22.00;99.90;;;;;;5122613;27;20042;-63
2023/08/13 09:33:17;;;;;;;5.22;1.65;;;22.00;99.90;;;;;;5104196;27;20050;-64
2023/08/13 09:35:44;;;;;;;5.35;1.45;;;22.10;99.90;;;;;;5124969;27;20070;-64
2023/08/13 09:38:11;;;;;;;5.95;1.35;;;22.20;99.90;;;;;;5121017;27;20054;-65
2023/08/13 09:40:37;;;;;;;3.95;1.25;;;22.60;99.90;;;;;;5122150;27;20050;-64
2023/08/13 09:43:09;;;;;;;5.38;1.38;;;22.90;99.90;;;;;;5119190;27;20071;-65
2023/08/13 09:45:35;;;;;;;5.05;1.63;;;22.90;99.90;;;;;;5120630;27;20130;-64
2023/08/13 09:48:06;;;;;;;3.83;1.13;;;23.00;99.90;;;;;;5120332;27;20043;-62
2023/08/13 09:50:40;;;;;;;5.05;1.20;;;23.00;99.90;;;;;;5118378;27;20050;-63
2023/08/13 09:53:11;;;;;;;6.55;1.42;;;23.10;99.90;;;;;;5101021;27;20058;-63
2023/08/13 09:55:43;;;;;;;3.40;1.13;;;23.00;99.90;;;;;;5123304;27;20497;-64
2023/08/13 09:58:13;;;;;;;3.42;0.95;;;23.00;99.90;;;;;;5120721;27;20489;-64
2023/08/13 10:00:39;;;;;;;2.88;1.00;;;22.70;99.90;;;;;;5133790;27;20114;-64
2023/08/13 10:03:04;;;;;;;3.25;1.00;;;22.70;99.90;;;;;;5143730;27;20035;-63
2023/08/13 10:05:32;;;;;;;3.53;0.90;;;22.80;99.90;;;;;;5125131;27;20033;-64
2023/08/13 10:07:58;;;;;;;4.00;1.00;;;22.70;99.90;;;;;;5127909;27;20505;-64
2023/08/13 10:10:25;;;;;;;4.30;1.30;;;22.60;99.90;;;;;;5143721;27;20042;-64
2023/08/13 10:12:51;;;;;;;2.80;0.98;;;22.50;99.90;;;;;;5106043;27;20035;-64
2023/08/13 10:15:19;;;;;;;2.55;0.73;;;22.40;99.90;;;;;;5126265;27;20035;-64
2023/08/13 10:17:45;;;;;;;4.95;1.25;;;22.50;99.90;;;;;;5122627;27;20039;-63
2023/08/13 10:20:11;;;;;;;4.55;0.98;;;22.50;99.90;;;;;;5125745;27;20042;-64
2023/08/13 10:22:39;;;;;;;6.65;1.83;;;22.60;99.90;;;;;;5129155;27;20098;-63
2023/08/13 10:25:07;;;;;;;4.13;0.82;;;22.60;99.90;;;;;;5140718;27;20031;-63
2023/08/13 10:27:37;;;;;;;3.50;0.98;;;22.60;99.90;;;;;;5145115;27;20073;-63
2023/08/13 10:30:11;;;;;;;3.42;0.80;;;22.70;99.90;;;;;;5136451;27;20035;-62
2023/08/13 10:32:46;;;;;;;3.72;0.93;;;22.60;99.90;;;;;;5133190;27;20084;-63
2023/08/13 10:35:22;;;;;;;32.08;7.13;;;22.40;99.90;;;;;;5136960;27;20046;-64
2023/08/13 10:37:53;;;;;;;4.05;1.50;;;22.40;99.90;;;;;;5113426;27;20035;-62
2023/08/13 10:40:19;;;;;;;3.72;1.00;;;22.60;99.90;;;;;;5136681;27;20046;-62
2023/08/13 10:42:47;;;;;;;4.53;1.10;;;22.70;99.90;;;;;;5116404;27;20474;-62
2023/08/13 10:45:18;;;;;;;3.40;0.82;;;22.80;99.90;;;;;;5148092;27;20079;-63
2023/08/13 10:47:50;;;;;;;3.38;0.95;;;22.70;99.90;;;;;;5125318;27;20045;-63
2023/08/13 10:50:22;;;;;;;3.13;1.10;;;22.80;99.90;;;;;;5128887;27;20155;-63
2023/08/13 10:52:52;;;;;;;;;;;22.90;99.90;;;;;;5127493;27;20039;-62
2023/08/13 10:55:30;;;;;;;4.72;1.10;;;22.80;99.90;;;;;;5145047;27;19966;-63
2023/08/13 10:57:56;;;;;;;4.68;1.13;;;22.80;99.90;;;;;;5129259;27;20085;-63
2023/08/13 11:00:24;;;;;;;3.70;1.10;;;22.70;99.90;;;;;;5128786;27;20051;-64
2023/08/13 11:03:19;;;;;;;6.72;1.65;;;22.80;99.90;;;;;;5135792;27;20396;-63
2023/08/13 11:05:45;;;;;;;4.47;0.90;;;22.60;99.90;;;;;;5152656;27;20038;-63
2023/08/13 11:08:21;;;;;;;6.63;1.10;;;22.50;99.90;;;;;;5120892;27;20063;-63
2023/08/13 11:10:47;;;;;;;8.50;1.38;;;22.40;99.90;;;;;;5123487;27;20038;-63
2023/08/13 11:13:14;;;;;;;4.63;1.23;;;22.20;99.90;;;;;;5138480;27;20078;-63
2023/08/13 11:15:48;;;;;;;4.80;1.05;;;22.10;99.90;;;;;;5116522;27;20447;-63
2023/08/13 11:18:14;;;;;;;4.63;1.23;;;22.00;99.90;;;;;;5115516;27;20034;-63
2023/08/13 11:20:40;;;;;;;5.25;1.58;;;22.00;99.90;;;;;;5143986;27;20371;-63
2023/08/13 11:23:05;;;;;;;5.07;1.30;;;21.90;99.90;;;;;;5134425;27;20099;-62
2023/08/13 11:25:31;;;;;;;6.47;1.42;;;21.90;99.90;;;;;;5146525;27;20095;-63
2023/08/13 11:27:57;;;;;;;7.90;1.50;;;22.00;99.90;;;;;;5120437;27;20044;-63
2023/08/13 11:30:22;;;;;;;4.68;1.80;;;22.00;99.90;;;;;;5119243;27;20051;-63
2023/08/13 11:32:48;;;;;;;4.95;1.40;;;21.90;99.90;;;;;;5130561;27;20043;-63
2023/08/13 11:35:16;;;;;;;4.20;1.70;;;21.90;99.90;;;;;;5125508;27;20039;-63
2023/08/13 11:37:42;;;;;;;6.82;1.63;;;21.90;99.90;;;;;;5112099;27;20066;-63
2023/08/13 11:40:11;;;;;;;4.00;1.30;;;21.90;99.90;;;;;;5115202;27;20462;-63
2023/08/13 11:42:50;;;;;;;6.28;1.83;;;21.90;99.90;;;;;;5124010;27;20078;-63
2023/08/13 11:45:16;;;;;;;4.78;1.38;;;21.90;99.90;;;;;;5118338;27;20035;-63
2023/08/13 11:47:41;;;;;;;6.32;1.67;;;21.80;99.90;;;;;;5127976;27;20167;-63
2023/08/13 11:50:21;;;;;;;4.60;1.45;;;21.70;99.90;;;;;;5132085;27;20047;-63
2023/08/13 11:53:12;;;;;;;7.30;2.20;;;21.60;99.90;;;;;;5119654;27;20047;-63
2023/08/13 11:55:41;;;;;;;9.80;1.90;;;21.60;99.90;;;;;;5114658;27;20044;-64
2023/08/13 11:58:07;;;;;;;7.30;2.47;;;21.50;99.90;;;;;;5125925;27;20057;-63
2023/08/13 12:00:33;;;;;;;6.68;2.00;;;21.40;99.90;;;;;;5131765;27;20035;-63
2023/08/13 12:02:59;;;;;;;5.30;1.60;;;21.30;99.90;;;;;;5129605;27;20068;-62
2023/08/13 12:05:30;;;;;;;6.90;1.85;;;21.40;99.90;;;;;;5120968;27;20116;-63
2023/08/13 12:07:57;;;;;;;8.68;2.00;;;21.40;99.90;;;;;;5114840;27;20043;-63
2023/08/13 12:10:23;;;;;;;8.82;1.90;;;21.50;99.90;;;;;;5120353;27;20122;-63
2023/08/13 12:12:48;;;;;;;7.22;2.05;;;21.60;99.90;;;;;;5127298;27;20161;-64
2023/08/13 12:15:16;;;;;;;10.68;2.20;;;21.70;99.90;;;;;;5113967;27;20035;-64
2023/08/13 12:17:42;;;;;;;9.60;2.10;;;21.70;99.90;;;;;;5120461;27;20031;-62
2023/08/13 12:20:11;;;;;;;8.43;1.95;;;21.90;99.90;;;;;;5120737;27;20046;-63
2023/08/13 12:22:36;;;;;;;8.50;2.08;;;21.90;99.90;;;;;;5106817;28;20047;-63
2023/08/13 12:25:02;;;;;;;8.85;2.00;;;21.90;99.90;;;;;;5121457;27;20044;-64
2023/08/13 12:27:28;;;;;;;6.78;2.17;;;21.90;99.90;;;;;;5128486;27;20069;-63
2023/08/13 12:29:53;;;;;;;6.07;1.98;;;22.00;99.90;;;;;;5125069;27;20493;-63
2023/08/13 12:32:19;;;;;;;7.57;2.00;;;22.00;99.90;;;;;;5133263;27;20122;-63
2023/08/13 12:34:44;;;;;;;6.97;1.85;;;22.00;99.90;;;;;;5119432;27;20043;-63
2023/08/13 12:37:10;;;;;;;6.32;2.00;;;22.10;99.90;;;;;;5125584;27;20469;-64
2023/08/13 12:39:36;;;;;;;10.18;1.90;;;22.10;99.90;;;;;;5139258;27;20034;-63
2023/08/13 12:42:01;;;;;;;6.22;2.20;;;22.00;99.90;;;;;;5147875;27;20043;-63